sensor_id;sensor_type;location;lat;lon;timestamp;pressure;altitude;pressure_sealevel;temperature;humidity
55914;BME280;58179;48.776;9.124;2023-05-02T00:00:11;97433.19;;;8.84;100.00
55914;BME280;58179;48.776;9.124;2023-05-02T00:02:38;97427.91;;;8.84;100.00
55914;BME280;58179;48.776;9.124;2023-05-02T00:05:05;97428.94;;;8.83;100.00
55914;BME280;58179;48.776;9.124;2023-05-02T00:07:31;97432.31;;;8.79;100.00
55914;BME280;58179;48.776;9.124;2023-05-02T00:09:57;97423.88;;;8.82;100.00
55914;BME280;58179;48.776;9.124;2023-05-02T00:12:25;97426.38;;;8.72;100.00
55914;BME280;58179;48.776;9.124;2023-05-02T00:14:50;97425.56;;;8.71;100.00
55914;BME280;58179;48.776;9.124;2023-05-02T00:17:17;97429.47;;;8.69;100.00
55914;BME280;58179;48.776;9.124;2023-05-02T00:19:43;97427.63;;;8.69;100.00
55914;BME280;58179;48.776;9.124;2023-05-02T00:22:09;97427.44;;;8.59;100.00
55914;BME280;58179;48.776;9.124;2023-05-02T00:24:35;97427.13;;;8.56;100.00
55914;BME280;58179;48.776;9.124;2023-05-02T00:27:01;97422.19;;;8.59;100.00
55914;BME280;58179;48.776;9.124;2023-05-02T00:29:28;97420.41;;;8.48;100.00
55914;BME280;58179;48.776;9.124;2023-05-02T00:31:54;97420.41;;;8.48;100.00
55914;BME280;58179;48.776;9.124;2023-05-02T00:34:20;97424.47;;;8.39;100.00
55914;BME280;58179;48.776;9.124;2023-05-02T00:36:47;97419.91;;;8.34;100.00
55914;BME280;58179;48.776;9.124;2023-05-02T00:39:13;97423.06;;;8.36;100.00
55914;BME280;58179;48.776;9.124;2023-05-02T00:41:39;97426.06;;;8.40;100.00
55914;BME280;58179;48.776;9.124;2023-05-02T00:44:05;97417.34;;;8.39;100.00
55914;BME280;58179;48.776;9.124;2023-05-02T00:46:32;97428.59;;;8.35;100.00
55914;BME280;58179;48.776;9.124;2023-05-02T00:48:58;97418.03;;;8.35;100.00
55914;BME280;58179;48.776;9.124;2023-05-02T00:51:26;97421.47;;;8.35;100.00
55914;BME280;58179;48.776;9.124;2023-05-02T00:53:52;97427.31;;;8.37;100.00
55914;BME280;58179;48.776;9.124;2023-05-02T00:56:18;97422.38;;;8.41;100.00
55914;BME280;58179;48.776;9.124;2023-05-02T00:58:45;97426.94;;;8.45;100.00
55914;BME280;58179;48.776;9.124;2023-05-02T01:01:25;97418.88;;;8.52;100.00
55914;BME280;58179;48.776;9.124;2023-05-02T01:04:07;97428.03;;;8.61;100.00
55914;BME280;58179;48.776;9.124;2023-05-02T01:06:52;97425.16;;;8.63;100.00
55914;BME280;58179;48.776;9.124;2023-05-02T01:09:33;97429.97;;;8.82;100.00
55914;BME280;58179;48.776;9.124;2023-05-02T01:12:09;97429.97;;;8.82;100.00
55914;BME280;58179;48.776;9.124;2023-05-02T01:14:44;97431.91;;;8.87;100.00
55914;BME280;58179;48.776;9.124;2023-05-02T01:17:13;97438.47;;;8.84;100.00
55914;BME280;58179;48.776;9.124;2023-05-02T01:19:50;97436.84;;;8.83;100.00
55914;BME280;58179;48.776;9.124;2023-05-02T01:22:18;97445.81;;;8.82;100.00
55914;BME280;58179;48.776;9.124;2023-05-02T01:24:53;97435.75;;;8.79;100.00
55914;BME280;58179;48.776;9.124;2023-05-02T01:27:35;97435.97;;;8.78;100.00
55914;BME280;58179;48.776;9.124;2023-05-02T01:30:07;97430.69;;;8.78;100.00
55914;BME280;58179;48.776;9.124;2023-05-02T01:32:36;97440.69;;;8.76;100.00
55914;BME280;58179;48.776;9.124;2023-05-02T01:35:05;97436.44;;;8.75;100.00
55914;BME280;58179;48.776;9.124;2023-05-02T01:37:33;97432.44;;;8.72;100.00
55914;BME280;58179;48.776;9.124;2023-05-02T01:40:03;97432.91;;;8.69;100.00
55914;BME280;58179;48.776;9.124;2023-05-02T01:42:31;97433.16;;;8.68;100.00
55914;BME280;58179;48.776;9.124;2023-05-02T01:45:03;97428.66;;;8.68;100.00
55914;BME280;58179;48.776;9.124;2023-05-02T01:47:32;97434.41;;;8.65;100.00
55914;BME280;58179;48.776;9.124;2023-05-02T01:50:01;97437.84;;;8.66;100.00
55914;BME280;58179;48.776;9.124;2023-05-02T01:52:28;97446.25;;;8.63;100.00
55914;BME280;58179;48.776;9.124;2023-05-02T01:54:57;97445.47;;;8.62;100.00
55914;BME280;58179;48.776;9.124;2023-05-02T01:57:24;97447.97;;;8.57;100.00
55914;BME280;58179;48.776;9.124;2023-05-02T01:59:51;97439.75;;;8.53;100.00
55914;BME280;58179;48.776;9.124;2023-05-02T02:02:20;97444.00;;;8.54;100.00
55914;BME280;58179;48.776;9.124;2023-05-02T02:04:49;97444.00;;;8.54;100.00
55914;BME280;58179;48.776;9.124;2023-05-02T02:07:16;97443.44;;;8.52;100.00
55914;BME280;58179;48.776;9.124;2023-05-02T02:09:41;97447.59;;;8.48;100.00
55914;BME280;58179;48.776;9.124;2023-05-02T02:12:12;97443.13;;;8.49;100.00
55914;BME280;58179;48.776;9.124;2023-05-02T02:14:44;97449.88;;;8.45;100.00
55914;BME280;58179;48.776;9.124;2023-05-02T02:17:15;97454.94;;;8.46;100.00
55914;BME280;58179;48.776;9.124;2023-05-02T02:19:50;97460.13;;;8.41;100.00
55914;BME280;58179;48.776;9.124;2023-05-02T02:22:19;97465.50;;;8.35;100.00
55914;BME280;58179;48.776;9.124;2023-05-02T02:24:47;97463.22;;;8.27;100.00
55914;BME280;58179;48.776;9.124;2023-05-02T02:27:13;97471.59;;;8.24;100.00
55914;BME280;58179;48.776;9.124;2023-05-02T02:29:40;97462.31;;;8.21;100.00
55914;BME280;58179;48.776;9.124;2023-05-02T02:32:05;97476.22;;;8.16;100.00
55914;BME280;58179;48.776;9.124;2023-05-02T02:34:31;97469.31;;;8.15;100.00
55914;BME280;58179;48.776;9.124;2023-05-02T02:37:02;97469.56;;;8.14;100.00
55914;BME280;58179;48.776;9.124;2023-05-02T02:39:43;97472.69;;;8.11;100.00
55914;BME280;58179;48.776;9.124;2023-05-02T02:42:17;97482.41;;;8.10;100.00
55914;BME280;58179;48.776;9.124;2023-05-02T02:44:55;97478.03;;;8.04;100.00
55914;BME280;58179;48.776;9.124;2023-05-02T02:47:30;97479.44;;;8.07;100.00
55914;BME280;58179;48.776;9.124;2023-05-02T02:50:11;97484.69;;;8.07;100.00
55914;BME280;58179;48.776;9.124;2023-05-02T02:52:51;97491.94;;;8.11;100.00
55914;BME280;58179;48.776;9.124;2023-05-02T02:55:30;97488.00;;;8.14;100.00
55914;BME280;58179;48.776;9.124;2023-05-02T02:58:06;97488.81;;;8.14;100.00
55914;BME280;58179;48.776;9.124;2023-05-02T03:00:36;97510.25;;;8.18;100.00
55914;BME280;58179;48.776;9.124;2023-05-02T03:03:04;97503.47;;;8.22;100.00
55914;BME280;58179;48.776;9.124;2023-05-02T03:05:32;97509.41;;;8.29;100.00
55914;BME280;58179;48.776;9.124;2023-05-02T03:08:00;97517.22;;;8.36;100.00
55914;BME280;58179;48.776;9.124;2023-05-02T03:10:26;97528.44;;;8.43;100.00
55914;BME280;58179;48.776;9.124;2023-05-02T03:12:51;97524.41;;;8.52;100.00
55914;BME280;58179;48.776;9.124;2023-05-02T03:15:44;97529.31;;;8.60;100.00
55914;BME280;58179;48.776;9.124;2023-05-02T03:18:18;97526.78;;;8.65;100.00
55914;BME280;58179;48.776;9.124;2023-05-02T03:20:44;97530.75;;;8.79;100.00
55914;BME280;58179;48.776;9.124;2023-05-02T03:23:12;97529.16;;;8.95;100.00
55914;BME280;58179;48.776;9.124;2023-05-02T03:25:37;97532.38;;;8.97;100.00
55914;BME280;58179;48.776;9.124;2023-05-02T03:28:04;97540.66;;;9.01;100.00
55914;BME280;58179;48.776;9.124;2023-05-02T03:30:30;97543.59;;;9.04;100.00
55914;BME280;58179;48.776;9.124;2023-05-02T03:32:56;97540.50;;;9.07;100.00
55914;BME280;58179;48.776;9.124;2023-05-02T03:35:22;97545.53;;;9.09;100.00
55914;BME280;58179;48.776;9.124;2023-05-02T03:37:47;97550.09;;;9.13;100.00
55914;BME280;58179;48.776;9.124;2023-05-02T03:40:15;97551.94;;;9.13;100.00
55914;BME280;58179;48.776;9.124;2023-05-02T03:42:41;97552.97;;;9.12;100.00
55914;BME280;58179;48.776;9.124;2023-05-02T03:45:08;97557.56;;;9.16;100.00
55914;BME280;58179;48.776;9.124;2023-05-02T03:47:34;97563.16;;;9.20;100.00
55914;BME280;58179;48.776;9.124;2023-05-02T03:50:00;97566.59;;;9.20;100.00
55914;BME280;58179;48.776;9.124;2023-05-02T03:52:28;97569.00;;;9.22;100.00
55914;BME280;58179;48.776;9.124;2023-05-02T03:54:53;97566.13;;;9.23;100.00
55914;BME280;58179;48.776;9.124;2023-05-02T03:57:21;97581.03;;;9.29;100.00
55914;BME280;58179;48.776;9.124;2023-05-02T03:59:47;97578.16;;;9.31;100.00
55914;BME280;58179;48.776;9.124;2023-05-02T04:02:13;97582.41;;;9.32;100.00
55914;BME280;58179;48.776;9.124;2023-05-02T04:04:39;97581.34;;;9.33;100.00
55914;BME280;58179;48.776;9.124;2023-05-02T04:07:05;97585.59;;;9.34;100.00
55914;BME280;58179;48.776;9.124;2023-05-02T04:09:32;97585.78;;;9.44;100.00
55914;BME280;58179;48.776;9.124;2023-05-02T04:11:58;97586.72;;;9.38;100.00
55914;BME280;58179;48.776;9.124;2023-05-02T04:14:26;97593.38;;;9.41;100.00
55914;BME280;58179;48.776;9.124;2023-05-02T04:16:51;97586.25;;;9.41;100.00
55914;BME280;58179;48.776;9.124;2023-05-02T04:19:18;97590.25;;;9.44;100.00
55914;BME280;58179;48.776;9.124;2023-05-02T04:21:44;97593.63;;;9.39;100.00
55914;BME280;58179;48.776;9.124;2023-05-02T04:24:12;97592.09;;;9.43;100.00
55914;BME280;58179;48.776;9.124;2023-05-02T04:26:38;97596.56;;;9.43;100.00
55914;BME280;58179;48.776;9.124;2023-05-02T04:29:03;97600.81;;;9.44;100.00
55914;BME280;58179;48.776;9.124;2023-05-02T04:31:32;97597.94;;;9.45;100.00
55914;BME280;58179;48.776;9.124;2023-05-02T04:33:58;97602.44;;;9.45;100.00
55914;BME280;58179;48.776;9.124;2023-05-02T04:36:24;97595.84;;;9.47;100.00
55914;BME280;58179;48.776;9.124;2023-05-02T04:38:52;97609.06;;;9.47;100.00
55914;BME280;58179;48.776;9.124;2023-05-02T04:41:18;97602.66;;;9.43;100.00
55914;BME280;58179;48.776;9.124;2023-05-02T04:43:45;97606.91;;;9.44;100.00
55914;BME280;58179;48.776;9.124;2023-05-02T04:46:11;97613.00;;;9.45;100.00
55914;BME280;58179;48.776;9.124;2023-05-02T04:48:38;97610.59;;;9.43;100.00
55914;BME280;58179;48.776;9.124;2023-05-02T04:51:06;97609.78;;;9.43;100.00
55914;BME280;58179;48.776;9.124;2023-05-02T04:53:32;97610.59;;;9.43;100.00
55914;BME280;58179;48.776;9.124;2023-05-02T04:55:59;97607.38;;;9.41;100.00
55914;BME280;58179;48.776;9.124;2023-05-02T04:58:24;97614.75;;;9.39;100.00
55914;BME280;58179;48.776;9.124;2023-05-02T05:00:50;97609.47;;;9.39;100.00
55914;BME280;58179;48.776;9.124;2023-05-02T05:03:16;97612.56;;;9.36;100.00
55914;BME280;58179;48.776;9.124;2023-05-02T05:05:44;97613.31;;;9.31;100.00
55914;BME280;58179;48.776;9.124;2023-05-02T05:08:09;97625.22;;;9.34;100.00
55914;BME280;58179;48.776;9.124;2023-05-02T05:10:35;97625.31;;;9.39;100.00
55914;BME280;58179;48.776;9.124;2023-05-02T05:13:01;97626.28;;;9.50;100.00
55914;BME280;58179;48.776;9.124;2023-05-02T05:15:28;97635.38;;;9.54;100.00
55914;BME280;58179;48.776;9.124;2023-05-02T05:17:54;97641.03;;;9.62;100.00
55914;BME280;58179;48.776;9.124;2023-05-02T05:20:20;97652.81;;;9.71;100.00
55914;BME280;58179;48.776;9.124;2023-05-02T05:22:48;97655.56;;;9.77;100.00
55914;BME280;58179;48.776;9.124;2023-05-02T05:25:14;97652.75;;;9.66;100.00
55914;BME280;58179;48.776;9.124;2023-05-02T05:27:40;97665.44;;;9.81;100.00
55914;BME280;58179;48.776;9.124;2023-05-02T05:30:07;97666.88;;;9.89;100.00
55914;BME280;58179;48.776;9.124;2023-05-02T05:32:35;97670.50;;;9.99;100.00
55914;BME280;58179;48.776;9.124;2023-05-02T05:35:01;97675.34;;;10.07;100.00
55914;BME280;58179;48.776;9.124;2023-05-02T05:37:29;97676.50;;;10.12;100.00
55914;BME280;58179;48.776;9.124;2023-05-02T05:39:56;97673.38;;;10.15;100.00
55914;BME280;58179;48.776;9.124;2023-05-02T05:42:22;97684.88;;;10.20;100.00
55914;BME280;58179;48.776;9.124;2023-05-02T05:44:48;97690.47;;;10.07;100.00
55914;BME280;58179;48.776;9.124;2023-05-02T05:47:18;97686.63;;;10.15;100.00
55914;BME280;58179;48.776;9.124;2023-05-02T05:49:45;97690.28;;;10.14;100.00
55914;BME280;58179;48.776;9.124;2023-05-02T05:52:10;97690.16;;;10.20;100.00
55914;BME280;58179;48.776;9.124;2023-05-02T05:54:36;97696.97;;;10.33;100.00
55914;BME280;58179;48.776;9.124;2023-05-02T05:57:04;97700.66;;;10.32;100.00
55914;BME280;58179;48.776;9.124;2023-05-02T05:59:29;97707.66;;;10.21;100.00
55914;BME280;58179;48.776;9.124;2023-05-02T06:01:55;97702.59;;;10.36;100.00
55914;BME280;58179;48.776;9.124;2023-05-02T06:04:22;97712.59;;;10.34;100.00
55914;BME280;58179;48.776;9.124;2023-05-02T06:06:48;97707.38;;;10.39;100.00
55914;BME280;58179;48.776;9.124;2023-05-02T06:09:15;97717.56;;;10.47;100.00
55914;BME280;58179;48.776;9.124;2023-05-02T06:11:41;97711.38;;;10.59;100.00
55914;BME280;58179;48.776;9.124;2023-05-02T06:14:09;97717.97;;;10.56;100.00
55914;BME280;58179;48.776;9.124;2023-05-02T06:16:35;97723.09;;;10.63;100.00
55914;BME280;58179;48.776;9.124;2023-05-02T06:19:01;97721.72;;;10.60;100.00
55914;BME280;58179;48.776;9.124;2023-05-02T06:21:27;97720.94;;;10.60;100.00
55914;BME280;58179;48.776;9.124;2023-05-02T06:23:53;97732.41;;;10.65;100.00
55914;BME280;58179;48.776;9.124;2023-05-02T06:26:19;97735.28;;;10.64;100.00
55914;BME280;58179;48.776;9.124;2023-05-02T06:28:46;97732.69;;;10.69;100.00
55914;BME280;58179;48.776;9.124;2023-05-02T06:31:13;97726.69;;;10.73;100.00
55914;BME280;58179;48.776;9.124;2023-05-02T06:33:41;97740.25;;;10.60;100.00
55914;BME280;58179;48.776;9.124;2023-05-02T06:36:07;97743.91;;;10.76;100.00
55914;BME280;58179;48.776;9.124;2023-05-02T06:38:33;97752.13;;;10.74;100.00
55914;BME280;58179;48.776;9.124;2023-05-02T06:40:59;97748.00;;;10.83;100.00
55914;BME280;58179;48.776;9.124;2023-05-02T06:43:25;97750.81;;;10.94;100.00
55914;BME280;58179;48.776;9.124;2023-05-02T06:45:52;97751.19;;;11.02;100.00
55914;BME280;58179;48.776;9.124;2023-05-02T06:48:20;97748.91;;;11.11;100.00
55914;BME280;58179;48.776;9.124;2023-05-02T06:50:46;97772.38;;;11.02;100.00
55914;BME280;58179;48.776;9.124;2023-05-02T06:53:12;97759.13;;;11.02;100.00
55914;BME280;58179;48.776;9.124;2023-05-02T06:55:38;97759.13;;;11.02;100.00
55914;BME280;58179;48.776;9.124;2023-05-02T06:58:04;97760.56;;;11.10;100.00
55914;BME280;58179;48.776;9.124;2023-05-02T07:00:30;97765.06;;;11.09;100.00
55914;BME280;58179;48.776;9.124;2023-05-02T07:02:56;97766.47;;;11.17;100.00
55914;BME280;58179;48.776;9.124;2023-05-02T07:05:23;97767.84;;;11.19;100.00
55914;BME280;58179;48.776;9.124;2023-05-02T07:07:49;97782.22;;;11.07;100.00
55914;BME280;58179;48.776;9.124;2023-05-02T07:10:15;97780.16;;;11.09;100.00
55914;BME280;58179;48.776;9.124;2023-05-02T07:12:41;97789.59;;;11.21;100.00
55914;BME280;58179;48.776;9.124;2023-05-02T07:15:08;97792.78;;;11.23;100.00
55914;BME280;58179;48.776;9.124;2023-05-02T07:17:34;97780.34;;;11.24;100.00
55914;BME280;58179;48.776;9.124;2023-05-02T07:20:00;97784.44;;;11.32;100.00
55914;BME280;58179;48.776;9.124;2023-05-02T07:22:27;97792.94;;;11.34;100.00
55914;BME280;58179;48.776;9.124;2023-05-02T07:24:57;97799.28;;;11.33;100.00
55914;BME280;58179;48.776;9.124;2023-05-02T07:27:23;97802.78;;;11.38;100.00
55914;BME280;58179;48.776;9.124;2023-05-02T07:29:49;97793.81;;;11.61;100.00
55914;BME280;58179;48.776;9.124;2023-05-02T07:32:16;97802.50;;;11.56;100.00
55914;BME280;58179;48.776;9.124;2023-05-02T07:34:42;97802.31;;;11.63;100.00
55914;BME280;58179;48.776;9.124;2023-05-02T07:37:08;97800.66;;;11.57;100.00
55914;BME280;58179;48.776;9.124;2023-05-02T07:39:36;97796.50;;;11.44;100.00
55914;BME280;58179;48.776;9.124;2023-05-02T07:42:02;97800.16;;;11.60;100.00
55914;BME280;58179;48.776;9.124;2023-05-02T07:44:28;97795.38;;;11.79;100.00
55914;BME280;58179;48.776;9.124;2023-05-02T07:46:54;97803.06;;;11.80;100.00
55914;BME280;58179;48.776;9.124;2023-05-02T07:49:20;97800.66;;;12.00;100.00
55914;BME280;58179;48.776;9.124;2023-05-02T07:51:46;97803.09;;;12.07;100.00
55914;BME280;58179;48.776;9.124;2023-05-02T07:54:15;97806.09;;;12.16;100.00
55914;BME280;58179;48.776;9.124;2023-05-02T07:56:43;97806.09;;;12.16;100.00
55914;BME280;58179;48.776;9.124;2023-05-02T07:59:09;97809.00;;;12.14;100.00
55914;BME280;58179;48.776;9.124;2023-05-02T08:01:36;97816.56;;;12.00;100.00
55914;BME280;58179;48.776;9.124;2023-05-02T08:04:02;97827.84;;;11.91;100.00
55914;BME280;58179;48.776;9.124;2023-05-02T08:06:28;97823.16;;;11.98;100.00
55914;BME280;58179;48.776;9.124;2023-05-02T08:08:55;97827.22;;;12.06;100.00
55914;BME280;58179;48.776;9.124;2023-05-02T08:11:21;97834.59;;;12.25;100.00
55914;BME280;58179;48.776;9.124;2023-05-02T08:13:51;97834.13;;;12.33;100.00
55914;BME280;58179;48.776;9.124;2023-05-02T08:16:18;97840.19;;;12.56;100.00
55914;BME280;58179;48.776;9.124;2023-05-02T08:18:44;97837.69;;;12.44;100.00
55914;BME280;58179;48.776;9.124;2023-05-02T08:21:10;97838.09;;;12.58;100.00
55914;BME280;58179;48.776;9.124;2023-05-02T08:23:36;97845.34;;;12.67;100.00
55914;BME280;58179;48.776;9.124;2023-05-02T08:26:04;97838.94;;;12.36;100.00
55914;BME280;58179;48.776;9.124;2023-05-02T08:28:30;97842.84;;;12.56;100.00
55914;BME280;58179;48.776;9.124;2023-05-02T08:30:58;97838.47;;;12.71;100.00
55914;BME280;58179;48.776;9.124;2023-05-02T08:33:24;97844.22;;;12.63;100.00
55914;BME280;58179;48.776;9.124;2023-05-02T08:35:51;97839.38;;;12.87;100.00
55914;BME280;58179;48.776;9.124;2023-05-02T08:38:18;97847.41;;;12.92;100.00
55914;BME280;58179;48.776;9.124;2023-05-02T08:40:44;97850.25;;;13.17;100.00
55914;BME280;58179;48.776;9.124;2023-05-02T08:43:15;97846.06;;;12.95;100.00
55914;BME280;58179;48.776;9.124;2023-05-02T08:45:43;97847.78;;;13.06;100.00
55914;BME280;58179;48.776;9.124;2023-05-02T08:48:12;97847.69;;;13.28;100.00
55914;BME280;58179;48.776;9.124;2023-05-02T08:50:41;97844.31;;;13.42;100.00
55914;BME280;58179;48.776;9.124;2023-05-02T08:53:11;97848.91;;;13.57;100.00
55914;BME280;58179;48.776;9.124;2023-05-02T08:55:39;97853.25;;;13.83;100.00
55914;BME280;58179;48.776;9.124;2023-05-02T08:58:06;97849.53;;;13.74;100.00
55914;BME280;58179;48.776;9.124;2023-05-02T09:00:34;97853.56;;;13.92;100.00
55914;BME280;58179;48.776;9.124;2023-05-02T09:03:09;97862.41;;;14.03;100.00
55914;BME280;58179;48.776;9.124;2023-05-02T09:05:41;97851.25;;;14.11;100.00
55914;BME280;58179;48.776;9.124;2023-05-02T09:08:10;97859.56;;;14.34;100.00
55914;BME280;58179;48.776;9.124;2023-05-02T09:10:38;97862.75;;;14.37;100.00
55914;BME280;58179;48.776;9.124;2023-05-02T09:13:31;97867.22;;;14.16;100.00
55914;BME280;58179;48.776;9.124;2023-05-02T09:16:00;97868.41;;;13.78;100.00
55914;BME280;58179;48.776;9.124;2023-05-02T09:18:33;97866.06;;;13.86;100.00
55914;BME280;58179;48.776;9.124;2023-05-02T09:21:04;97872.75;;;13.94;100.00
55914;BME280;58179;48.776;9.124;2023-05-02T09:23:37;97867.91;;;13.81;100.00
55914;BME280;58179;48.776;9.124;2023-05-02T09:26:13;97863.91;;;13.83;100.00
55914;BME280;58179;48.776;9.124;2023-05-02T09:28:42;97868.66;;;13.76;100.00
55914;BME280;58179;48.776;9.124;2023-05-02T09:31:12;97868.78;;;13.97;100.00
55914;BME280;58179;48.776;9.124;2023-05-02T09:33:39;97854.97;;;14.15;100.00
55914;BME280;58179;48.776;9.124;2023-05-02T09:36:09;97870.25;;;14.45;100.00
55914;BME280;58179;48.776;9.124;2023-05-02T09:38:37;97866.31;;;14.88;100.00
55914;BME280;58179;48.776;9.124;2023-05-02T09:41:03;97878.81;;;15.38;100.00
55914;BME280;58179;48.776;9.124;2023-05-02T09:43:30;97875.81;;;15.65;100.00
55914;BME280;58179;48.776;9.124;2023-05-02T09:45:58;97871.28;;;15.75;100.00
55914;BME280;58179;48.776;9.124;2023-05-02T09:48:26;97874.47;;;15.77;100.00
55914;BME280;58179;48.776;9.124;2023-05-02T09:50:52;97879.00;;;15.77;100.00
55914;BME280;58179;48.776;9.124;2023-05-02T09:53:20;97871.28;;;15.70;100.00
55914;BME280;58179;48.776;9.124;2023-05-02T09:55:47;97868.09;;;15.58;100.00
55914;BME280;58179;48.776;9.124;2023-05-02T09:58:22;97881.16;;;15.70;100.00
55914;BME280;58179;48.776;9.124;2023-05-02T10:00:49;97878.25;;;15.61;100.00
55914;BME280;58179;48.776;9.124;2023-05-02T10:03:17;97874.00;;;15.40;100.00
55914;BME280;58179;48.776;9.124;2023-05-02T10:05:44;97869.44;;;15.50;100.00
55914;BME280;58179;48.776;9.124;2023-05-02T10:08:11;97871.84;;;15.52;100.00
55914;BME280;58179;48.776;9.124;2023-05-02T10:10:42;97885.44;;;15.66;100.00
55914;BME280;58179;48.776;9.124;2023-05-02T10:13:12;97880.25;;;15.95;100.00
55914;BME280;58179;48.776;9.124;2023-05-02T10:15:43;97884.41;;;16.26;100.00
55914;BME280;58179;48.776;9.124;2023-05-02T10:18:13;97886.63;;;16.63;100.00
55914;BME280;58179;48.776;9.124;2023-05-02T10:20:47;97885.31;;;16.94;100.00
55914;BME280;58179;48.776;9.124;2023-05-02T10:23:17;97880.38;;;17.69;100.00
55914;BME280;58179;48.776;9.124;2023-05-02T10:25:46;97874.13;;;18.22;100.00
55914;BME280;58179;48.776;9.124;2023-05-02T10:28:13;97868.84;;;18.91;100.00
55914;BME280;58179;48.776;9.124;2023-05-02T10:30:40;97869.00;;;19.46;100.00
55914;BME280;58179;48.776;9.124;2023-05-02T10:33:06;97867.94;;;19.75;100.00
55914;BME280;58179;48.776;9.124;2023-05-02T10:35:33;97854.97;;;20.18;100.00
55914;BME280;58179;48.776;9.124;2023-05-02T10:38:01;97853.09;;;20.04;100.00
55914;BME280;58179;48.776;9.124;2023-05-02T10:40:27;97866.34;;;19.87;100.00
55914;BME280;58179;48.776;9.124;2023-05-02T10:42:55;97858.00;;;19.75;100.00
55914;BME280;58179;48.776;9.124;2023-05-02T10:45:32;97852.13;;;19.73;100.00
55914;BME280;58179;48.776;9.124;2023-05-02T10:48:18;97853.50;;;19.98;100.00
55914;BME280;58179;48.776;9.124;2023-05-02T10:50:47;97855.91;;;19.99;100.00
55914;BME280;58179;48.776;9.124;2023-05-02T10:53:27;97844.13;;;20.09;100.00
55914;BME280;58179;48.776;9.124;2023-05-02T10:56:22;97841.78;;;20.30;100.00
55914;BME280;58179;48.776;9.124;2023-05-02T10:58:52;97835.50;;;20.48;100.00
55914;BME280;58179;48.776;9.124;2023-05-02T11:01:37;97839.97;;;20.53;100.00
55914;BME280;58179;48.776;9.124;2023-05-02T11:04:06;97839.84;;;20.35;100.00
55914;BME280;58179;48.776;9.124;2023-05-02T11:06:33;97846.34;;;20.07;100.00
55914;BME280;58179;48.776;9.124;2023-05-02T11:09:31;97851.31;;;19.59;100.00
55914;BME280;58179;48.776;9.124;2023-05-02T11:11:58;97845.25;;;19.07;100.00
55914;BME280;58179;48.776;9.124;2023-05-02T11:14:45;97848.81;;;18.70;100.00
55914;BME280;58179;48.776;9.124;2023-05-02T11:17:12;97845.50;;;18.36;100.00
55914;BME280;58179;48.776;9.124;2023-05-02T11:20:27;97841.16;;;18.21;100.00
55914;BME280;58179;48.776;9.124;2023-05-02T11:22:58;97833.00;;;18.31;100.00
55914;BME280;58179;48.776;9.124;2023-05-02T11:25:37;97840.16;;;18.73;100.00
55914;BME280;58179;48.776;9.124;2023-05-02T11:28:06;97838.59;;;19.18;100.00
55914;BME280;58179;48.776;9.124;2023-05-02T11:30:40;97831.94;;;19.62;100.00
55914;BME280;58179;48.776;9.124;2023-05-02T11:33:16;97850.13;;;19.79;100.00
55914;BME280;58179;48.776;9.124;2023-05-02T11:35:45;97844.28;;;19.77;100.00
55914;BME280;58179;48.776;9.124;2023-05-02T11:38:14;97850.63;;;19.67;100.00
55914;BME280;58179;48.776;9.124;2023-05-02T11:40:56;97838.94;;;19.44;100.00
55914;BME280;58179;48.776;9.124;2023-05-02T11:43:24;97848.19;;;18.92;100.00
55914;BME280;58179;48.776;9.124;2023-05-02T11:45:52;97845.56;;;18.87;100.00
55914;BME280;58179;48.776;9.124;2023-05-02T11:48:20;97845.38;;;18.83;100.00
55914;BME280;58179;48.776;9.124;2023-05-02T11:50:49;97842.25;;;18.76;100.00
55914;BME280;58179;48.776;9.124;2023-05-02T11:53:18;97841.25;;;18.72;100.00
55914;BME280;58179;48.776;9.124;2023-05-02T11:55:46;97839.88;;;18.75;100.00
55914;BME280;58179;48.776;9.124;2023-05-02T11:58:14;97841.75;;;18.74;100.00
55914;BME280;58179;48.776;9.124;2023-05-02T12:00:41;97838.06;;;19.03;100.00
55914;BME280;58179;48.776;9.124;2023-05-02T12:03:25;97844.34;;;19.58;100.00
55914;BME280;58179;48.776;9.124;2023-05-02T12:05:51;97842.47;;;19.99;100.00
55914;BME280;58179;48.776;9.124;2023-05-02T12:08:23;97839.66;;;20.04;100.00
55914;BME280;58179;48.776;9.124;2023-05-02T12:10:51;97847.66;;;19.82;100.00
55914;BME280;58179;48.776;9.124;2023-05-02T12:13:19;97851.44;;;19.67;100.00
55914;BME280;58179;48.776;9.124;2023-05-02T12:15:46;97851.69;;;19.06;100.00
55914;BME280;58179;48.776;9.124;2023-05-02T12:18:13;97841.47;;;18.76;100.00
55914;BME280;58179;48.776;9.124;2023-05-02T12:20:41;97837.66;;;18.63;100.00
55914;BME280;58179;48.776;9.124;2023-05-02T12:23:08;97832.34;;;18.58;100.00
55914;BME280;58179;48.776;9.124;2023-05-02T12:25:39;97836.13;;;19.22;100.00
55914;BME280;58179;48.776;9.124;2023-05-02T12:28:05;97845.34;;;20.03;100.00
55914;BME280;58179;48.776;9.124;2023-05-02T12:30:32;97829.53;;;20.73;100.00
55914;BME280;58179;48.776;9.124;2023-05-02T12:32:59;97837.81;;;21.61;100.00
55914;BME280;58179;48.776;9.124;2023-05-02T12:35:29;97836.41;;;22.20;100.00
55914;BME280;58179;48.776;9.124;2023-05-02T12:38:08;97845.91;;;23.30;100.00
55914;BME280;58179;48.776;9.124;2023-05-02T12:40:35;97852.34;;;23.54;96.92
55914;BME280;58179;48.776;9.124;2023-05-02T12:43:03;97846.19;;;23.45;91.48
55914;BME280;58179;48.776;9.124;2023-05-02T12:45:30;97851.16;;;23.26;92.02
55914;BME280;58179;48.776;9.124;2023-05-02T12:47:59;97845.84;;;23.56;100.00
55914;BME280;58179;48.776;9.124;2023-05-02T12:50:36;97841.53;;;23.63;88.92
55914;BME280;58179;48.776;9.124;2023-05-02T12:53:04;97838.47;;;24.32;88.61
55914;BME280;58179;48.776;9.124;2023-05-02T12:55:31;97846.78;;;24.27;89.25
55914;BME280;58179;48.776;9.124;2023-05-02T12:58:00;97857.75;;;24.72;97.42
55914;BME280;58179;48.776;9.124;2023-05-02T13:00:27;97848.97;;;24.96;71.22
55914;BME280;58179;48.776;9.124;2023-05-02T13:02:53;97830.63;;;25.71;67.69